sensor_id;sensor_type;location;lat;lon;timestamp;pressure;altitude;pressure_sealevel;temperature;humidity
55289;BME280;41154;45.394;5.734;2023-01-15T00:01:04;96873.22;;;5.66;100.00
55289;BME280;41154;45.394;5.734;2023-01-15T00:03:30;96875.34;;;5.76;100.00
55289;BME280;41154;45.394;5.734;2023-01-15T00:06:01;96859.16;;;5.78;100.00
55289;BME280;41154;45.394;5.734;2023-01-15T00:08:27;96851.84;;;5.73;100.00
55289;BME280;41154;45.394;5.734;2023-01-15T00:10:53;96863.16;;;6.05;100.00
55289;BME280;41154;45.394;5.734;2023-01-15T00:13:21;96850.28;;;5.65;100.00
55289;BME280;41154;45.394;5.734;2023-01-15T00:15:46;96818.69;;;5.87;100.00
55289;BME280;41154;45.394;5.734;2023-01-15T00:18:12;96805.47;;;5.81;100.00
55289;BME280;41154;45.394;5.734;2023-01-15T00:20:37;96782.59;;;5.61;100.00
55289;BME280;41154;45.394;5.734;2023-01-15T00:23:03;96775.78;;;5.65;100.00
55289;BME280;41154;45.394;5.734;2023-01-15T00:25:30;96780.72;;;5.80;100.00
55289;BME280;41154;45.394;5.734;2023-01-15T00:28:14;96769.75;;;5.58;100.00
55289;BME280;41154;45.394;5.734;2023-01-15T00:30:43;96762.63;;;5.70;100.00
55289;BME280;41154;45.394;5.734;2023-01-15T00:33:09;96768.75;;;5.71;100.00
55289;BME280;41154;45.394;5.734;2023-01-15T00:35:35;96731.44;;;5.59;100.00
55289;BME280;41154;45.394;5.734;2023-01-15T00:38:00;96736.50;;;5.49;100.00
55289;BME280;41154;45.394;5.734;2023-01-15T00:40:26;96738.81;;;5.75;100.00
55289;BME280;41154;45.394;5.734;2023-01-15T00:42:52;96759.81;;;5.65;100.00
55289;BME280;41154;45.394;5.734;2023-01-15T00:45:18;96770.38;;;5.72;100.00
55289;BME280;41154;45.394;5.734;2023-01-15T00:47:45;96775.84;;;5.77;100.00
55289;BME280;41154;45.394;5.734;2023-01-15T00:50:14;96778.47;;;5.96;100.00
55289;BME280;41154;45.394;5.734;2023-01-15T00:52:40;96767.63;;;5.97;100.00
55289;BME280;41154;45.394;5.734;2023-01-15T00:55:07;96783.28;;;5.87;100.00
55289;BME280;41154;45.394;5.734;2023-01-15T00:57:33;96768.09;;;5.75;100.00
55289;BME280;41154;45.394;5.734;2023-01-15T00:59:59;96750.44;;;5.63;100.00
55289;BME280;41154;45.394;5.734;2023-01-15T01:02:25;96770.97;;;5.74;100.00
55289;BME280;41154;45.394;5.734;2023-01-15T01:04:50;96757.84;;;5.91;100.00
55289;BME280;41154;45.394;5.734;2023-01-15T01:07:16;96752.81;;;6.01;100.00
55289;BME280;41154;45.394;5.734;2023-01-15T01:09:43;96749.97;;;5.96;100.00
55289;BME280;41154;45.394;5.734;2023-01-15T01:12:09;96751.31;;;6.05;100.00
55289;BME280;41154;45.394;5.734;2023-01-15T01:14:38;96765.75;;;5.98;100.00
55289;BME280;41154;45.394;5.734;2023-01-15T01:17:03;96765.75;;;6.28;100.00
55289;BME280;41154;45.394;5.734;2023-01-15T01:19:29;96769.19;;;6.17;100.00
55289;BME280;41154;45.394;5.734;2023-01-15T01:21:55;96774.25;;;6.06;100.00
55289;BME280;41154;45.394;5.734;2023-01-15T01:24:22;96767.34;;;6.29;100.00
55289;BME280;41154;45.394;5.734;2023-01-15T01:26:49;96776.97;;;6.30;100.00
55289;BME280;41154;45.394;5.734;2023-01-15T01:29:20;96771.25;;;6.57;100.00
55289;BME280;41154;45.394;5.734;2023-01-15T01:31:46;96781.56;;;6.53;100.00
55289;BME280;41154;45.394;5.734;2023-01-15T01:34:12;96760.66;;;6.38;100.00
55289;BME280;41154;45.394;5.734;2023-01-15T01:36:40;96767.59;;;6.27;100.00
55289;BME280;41154;45.394;5.734;2023-01-15T01:39:12;96768.31;;;6.46;100.00
55289;BME280;41154;45.394;5.734;2023-01-15T01:41:38;96758.22;;;6.25;100.00
55289;BME280;41154;45.394;5.734;2023-01-15T01:47:10;96769.84;;;6.12;100.00
55289;BME280;41154;45.394;5.734;2023-01-15T01:49:41;96773.75;;;6.28;100.00
55289;BME280;41154;45.394;5.734;2023-01-15T01:52:12;96780.22;;;6.20;100.00
55289;BME280;41154;45.394;5.734;2023-01-15T01:54:40;96785.31;;;6.34;100.00
55289;BME280;41154;45.394;5.734;2023-01-15T01:57:07;96785.34;;;6.45;100.00
55289;BME280;41154;45.394;5.734;2023-01-15T01:59:34;96796.59;;;6.47;100.00
55289;BME280;41154;45.394;5.734;2023-01-15T02:02:01;96793.81;;;6.54;100.00
55289;BME280;41154;45.394;5.734;2023-01-15T02:04:30;96803.56;;;6.60;100.00
55289;BME280;41154;45.394;5.734;2023-01-15T02:06:57;96794.88;;;6.65;100.00
55289;BME280;41154;45.394;5.734;2023-01-15T02:09:24;96796.16;;;6.62;100.00
55289;BME280;41154;45.394;5.734;2023-01-15T02:11:51;96803.34;;;6.86;100.00
55289;BME280;41154;45.394;5.734;2023-01-15T02:17:17;96804.16;;;6.62;100.00
55289;BME280;41154;45.394;5.734;2023-01-15T02:20:18;96815.75;;;6.68;100.00
55289;BME280;41154;45.394;5.734;2023-01-15T02:28:34;96795.16;;;7.11;100.00
55289;BME280;41154;45.394;5.734;2023-01-15T02:31:08;96773.47;;;6.72;100.00
55289;BME280;41154;45.394;5.734;2023-01-15T02:33:40;96757.94;;;6.69;100.00
55289;BME280;41154;45.394;5.734;2023-01-15T02:36:10;96761.75;;;6.61;100.00
55289;BME280;41154;45.394;5.734;2023-01-15T02:38:42;96751.66;;;6.63;100.00
55289;BME280;41154;45.394;5.734;2023-01-15T02:41:13;96754.78;;;6.60;100.00
55289;BME280;41154;45.394;5.734;2023-01-15T02:43:47;96750.75;;;6.81;100.00
55289;BME280;41154;45.394;5.734;2023-01-15T02:46:17;96737.28;;;6.76;100.00
55289;BME280;41154;45.394;5.734;2023-01-15T02:48:45;96748.88;;;6.58;100.00
55289;BME280;41154;45.394;5.734;2023-01-15T02:51:19;96747.50;;;6.67;100.00
55289;BME280;41154;45.394;5.734;2023-01-15T02:53:48;96757.69;;;6.82;100.00
55289;BME280;41154;45.394;5.734;2023-01-15T02:56:21;96753.28;;;6.88;100.00
55289;BME280;41154;45.394;5.734;2023-01-15T02:58:53;96742.28;;;6.84;100.00
55289;BME280;41154;45.394;5.734;2023-01-15T03:01:29;96741.69;;;6.94;100.00
55289;BME280;41154;45.394;5.734;2023-01-15T03:04:05;96729.53;;;6.74;100.00
55289;BME280;41154;45.394;5.734;2023-01-15T03:06:49;96709.38;;;6.55;100.00
55289;BME280;41154;45.394;5.734;2023-01-15T03:09:19;96706.47;;;6.44;100.00
55289;BME280;41154;45.394;5.734;2023-01-15T03:14:36;96687.47;;;6.64;100.00
55289;BME280;41154;45.394;5.734;2023-01-15T03:17:15;96695.81;;;6.44;100.00
55289;BME280;41154;45.394;5.734;2023-01-15T03:22:17;96689.44;;;6.45;100.00
55289;BME280;41154;45.394;5.734;2023-01-15T03:24:50;96687.00;;;6.32;100.00
55289;BME280;41154;45.394;5.734;2023-01-15T03:27:18;96690.81;;;6.60;100.00
55289;BME280;41154;45.394;5.734;2023-01-15T03:29:52;96692.09;;;6.34;100.00
55289;BME280;41154;45.394;5.734;2023-01-15T03:32:19;96703.09;;;6.25;100.00
55289;BME280;41154;45.394;5.734;2023-01-15T03:34:49;96699.47;;;6.20;100.00
55289;BME280;41154;45.394;5.734;2023-01-15T03:37:18;96704.34;;;6.11;100.00
55289;BME280;41154;45.394;5.734;2023-01-15T03:39:46;96692.75;;;6.05;100.00
55289;BME280;41154;45.394;5.734;2023-01-15T03:45:02;96697.50;;;6.03;100.00
55289;BME280;41154;45.394;5.734;2023-01-15T03:50:52;96686.09;;;5.96;100.00
55289;BME280;41154;45.394;5.734;2023-01-15T03:53:23;96687.75;;;5.97;100.00
55289;BME280;41154;45.394;5.734;2023-01-15T03:58:29;96688.44;;;6.04;100.00
55289;BME280;41154;45.394;5.734;2023-01-15T04:00:59;96683.38;;;6.15;100.00
55289;BME280;41154;45.394;5.734;2023-01-15T04:03:27;96691.25;;;6.09;100.00
55289;BME280;41154;45.394;5.734;2023-01-15T04:05:56;96674.16;;;6.41;100.00
55289;BME280;41154;45.394;5.734;2023-01-15T04:08:25;96676.56;;;6.19;100.00
55289;BME280;41154;45.394;5.734;2023-01-15T04:10:55;96672.00;;;6.07;100.00
55289;BME280;41154;45.394;5.734;2023-01-15T04:13:25;96679.81;;;6.21;100.00
55289;BME280;41154;45.394;5.734;2023-01-15T04:15:53;96666.75;;;6.31;100.00
55289;BME280;41154;45.394;5.734;2023-01-15T04:18:19;96684.78;;;6.17;100.00
55289;BME280;41154;45.394;5.734;2023-01-15T04:20:46;96674.13;;;6.29;100.00
55289;BME280;41154;45.394;5.734;2023-01-15T04:23:12;96687.78;;;6.21;100.00
55289;BME280;41154;45.394;5.734;2023-01-15T04:25:39;96692.44;;;5.95;100.00
55289;BME280;41154;45.394;5.734;2023-01-15T04:28:06;96698.00;;;5.93;100.00
55289;BME280;41154;45.394;5.734;2023-01-15T04:30:32;96697.97;;;5.82;100.00
55289;BME280;41154;45.394;5.734;2023-01-15T04:32:58;96701.09;;;5.79;100.00
55289;BME280;41154;45.394;5.734;2023-01-15T04:35:24;96701.09;;;5.79;100.00
55289;BME280;41154;45.394;5.734;2023-01-15T04:37:57;96689.28;;;5.74;100.00
55289;BME280;41154;45.394;5.734;2023-01-15T04:40:23;96695.03;;;5.71;100.00
55289;BME280;41154;45.394;5.734;2023-01-15T04:43:10;96697.59;;;5.66;100.00
55289;BME280;41154;45.394;5.734;2023-01-15T04:45:58;96707.31;;;5.72;100.00
55289;BME280;41154;45.394;5.734;2023-01-15T04:48:25;96711.19;;;5.88;100.00
55289;BME280;41154;45.394;5.734;2023-01-15T04:50:51;96709.63;;;5.99;100.00
55289;BME280;41154;45.394;5.734;2023-01-15T04:53:17;96698.09;;;6.17;100.00
55289;BME280;41154;45.394;5.734;2023-01-15T04:55:42;96678.28;;;6.13;100.00
55289;BME280;41154;45.394;5.734;2023-01-15T04:58:08;96689.34;;;5.98;100.00
55289;BME280;41154;45.394;5.734;2023-01-15T05:00:34;96680.75;;;6.26;100.00
55289;BME280;41154;45.394;5.734;2023-01-15T05:02:59;96683.38;;;6.15;100.00
55289;BME280;41154;45.394;5.734;2023-01-15T05:05:25;96695.09;;;5.95;100.00
55289;BME280;41154;45.394;5.734;2023-01-15T05:07:51;96677.69;;;5.99;100.00
55289;BME280;41154;45.394;5.734;2023-01-15T05:10:17;96673.81;;;5.95;100.00
55289;BME280;41154;45.394;5.734;2023-01-15T05:12:42;96668.47;;;5.95;100.00
55289;BME280;41154;45.394;5.734;2023-01-15T05:15:08;96668.78;;;6.05;100.00
55289;BME280;41154;45.394;5.734;2023-01-15T05:17:34;96674.75;;;5.58;100.00
55289;BME280;41154;45.394;5.734;2023-01-15T05:20:00;96670.84;;;5.61;100.00
55289;BME280;41154;45.394;5.734;2023-01-15T05:22:25;96656.88;;;5.66;100.00
55289;BME280;41154;45.394;5.734;2023-01-15T05:24:51;96643.81;;;5.76;100.00
55289;BME280;41154;45.394;5.734;2023-01-15T05:27:17;96639.09;;;5.78;100.00
55289;BME280;41154;45.394;5.734;2023-01-15T05:29:42;96644.38;;;5.66;100.00
55289;BME280;41154;45.394;5.734;2023-01-15T05:32:08;96645.03;;;5.62;100.00
55289;BME280;41154;45.394;5.734;2023-01-15T05:34:34;96644.53;;;5.53;100.00
55289;BME280;41154;45.394;5.734;2023-01-15T05:36:59;96639.81;;;5.55;100.00
55289;BME280;41154;45.394;5.734;2023-01-15T05:39:25;96642.66;;;5.42;100.00
55289;BME280;41154;45.394;5.734;2023-01-15T05:41:51;96645.16;;;5.55;100.00
55289;BME280;41154;45.394;5.734;2023-01-15T05:44:21;96643.34;;;5.79;100.00
55289;BME280;41154;45.394;5.734;2023-01-15T05:46:49;96647.41;;;5.82;100.00
55289;BME280;41154;45.394;5.734;2023-01-15T05:49:17;96649.81;;;5.71;100.00
55289;BME280;41154;45.394;5.734;2023-01-15T05:51:44;96641.38;;;5.74;100.00
55289;BME280;41154;45.394;5.734;2023-01-15T05:54:12;96650.19;;;5.87;100.00
55289;BME280;41154;45.394;5.734;2023-01-15T05:56:38;96655.00;;;5.66;100.00
55289;BME280;41154;45.394;5.734;2023-01-15T05:59:06;96669.09;;;5.55;100.00
55289;BME280;41154;45.394;5.734;2023-01-15T06:01:32;96650.41;;;5.43;100.00
55289;BME280;41154;45.394;5.734;2023-01-15T06:03:59;96662.41;;;5.34;100.00
55289;BME280;41154;45.394;5.734;2023-01-15T06:06:25;96673.72;;;5.11;100.00
55289;BME280;41154;45.394;5.734;2023-01-15T06:08:51;96679.78;;;5.36;100.00
55289;BME280;41154;45.394;5.734;2023-01-15T06:11:17;96678.41;;;5.46;100.00
55289;BME280;41154;45.394;5.734;2023-01-15T06:13:43;96670.81;;;5.31;100.00
55289;BME280;41154;45.394;5.734;2023-01-15T06:16:09;96677.09;;;5.36;100.00
55289;BME280;41154;45.394;5.734;2023-01-15T06:18:40;96682.31;;;5.13;100.00
55289;BME280;41154;45.394;5.734;2023-01-15T06:21:09;96688.66;;;4.93;100.00
55289;BME280;41154;45.394;5.734;2023-01-15T06:23:36;96691.41;;;4.86;100.00
55289;BME280;41154;45.394;5.734;2023-01-15T06:26:08;96694.09;;;4.80;100.00
55289;BME280;41154;45.394;5.734;2023-01-15T06:28:35;96698.84;;;4.96;100.00
55289;BME280;41154;45.394;5.734;2023-01-15T06:31:04;96700.63;;;5.02;100.00
55289;BME280;41154;45.394;5.734;2023-01-15T06:33:30;96700.47;;;4.97;100.00
55289;BME280;41154;45.394;5.734;2023-01-15T06:35:56;96691.31;;;5.12;100.00
55289;BME280;41154;45.394;5.734;2023-01-15T06:38:21;96698.97;;;4.83;100.00
55289;BME280;41154;45.394;5.734;2023-01-15T06:40:47;96687.63;;;4.76;100.00
55289;BME280;41154;45.394;5.734;2023-01-15T06:43:13;96678.34;;;4.85;100.00
55289;BME280;41154;45.394;5.734;2023-01-15T06:45:57;96686.16;;;4.61;100.00
55289;BME280;41154;45.394;5.734;2023-01-15T06:48:41;96688.38;;;4.64;100.00
55289;BME280;41154;45.394;5.734;2023-01-15T06:51:07;96704.72;;;4.80;100.00
55289;BME280;41154;45.394;5.734;2023-01-15T06:53:33;96712.81;;;4.92;100.00
55289;BME280;41154;45.394;5.734;2023-01-15T06:56:00;96719.34;;;4.89;100.00
55289;BME280;41154;45.394;5.734;2023-01-15T06:58:26;96725.44;;;4.96;100.00
55289;BME280;41154;45.394;5.734;2023-01-15T07:00:51;96728.63;;;5.05;100.00
55289;BME280;41154;45.394;5.734;2023-01-15T07:03:21;96728.97;;;5.09;100.00
55289;BME280;41154;45.394;5.734;2023-01-15T07:05:47;96729.56;;;4.92;100.00
55289;BME280;41154;45.394;5.734;2023-01-15T07:08:12;96731.31;;;4.98;100.00
55289;BME280;41154;45.394;5.734;2023-01-15T07:10:38;96735.09;;;4.91;100.00
55289;BME280;41154;45.394;5.734;2023-01-15T07:13:04;96729.56;;;4.92;100.00
55289;BME280;41154;45.394;5.734;2023-01-15T07:15:31;96729.56;;;4.92;100.00
55289;BME280;41154;45.394;5.734;2023-01-15T07:17:57;96705.50;;;5.06;100.00
55289;BME280;41154;45.394;5.734;2023-01-15T07:20:23;96669.16;;;5.18;100.00
55289;BME280;41154;45.394;5.734;2023-01-15T07:22:52;96644.66;;;4.97;100.00
55289;BME280;41154;45.394;5.734;2023-01-15T07:25:18;96631.19;;;5.11;100.00
55289;BME280;41154;45.394;5.734;2023-01-15T07:27:47;96625.97;;;5.34;100.00
55289;BME280;41154;45.394;5.734;2023-01-15T07:30:13;96620.19;;;5.37;100.00
55289;BME280;41154;45.394;5.734;2023-01-15T07:32:39;96619.16;;;5.38;100.00
55289;BME280;41154;45.394;5.734;2023-01-15T07:35:05;96623.91;;;5.36;100.00
55289;BME280;41154;45.394;5.734;2023-01-15T07:37:30;96624.81;;;5.30;100.00
55289;BME280;41154;45.394;5.734;2023-01-15T07:39:56;96634.09;;;5.39;100.00
55289;BME280;41154;45.394;5.734;2023-01-15T07:42:22;96631.66;;;5.38;100.00
55289;BME280;41154;45.394;5.734;2023-01-15T07:45:08;96646.97;;;5.54;100.00
55289;BME280;41154;45.394;5.734;2023-01-15T07:47:52;96621.91;;;5.62;100.00
55289;BME280;41154;45.394;5.734;2023-01-15T07:50:37;96624.78;;;5.49;100.00
55289;BME280;41154;45.394;5.734;2023-01-15T07:53:03;96619.28;;;5.32;100.00
55289;BME280;41154;45.394;5.734;2023-01-15T07:55:29;96617.75;;;5.24;100.00
55289;BME280;41154;45.394;5.734;2023-01-15T07:57:54;96590.13;;;5.25;100.00
55289;BME280;41154;45.394;5.734;2023-01-15T08:00:23;96607.69;;;5.26;100.00
55289;BME280;41154;45.394;5.734;2023-01-15T08:02:49;96601.28;;;5.46;100.00
55289;BME280;41154;45.394;5.734;2023-01-15T08:05:15;96613.63;;;5.40;100.00
55289;BME280;41154;45.394;5.734;2023-01-15T08:07:42;96604.78;;;5.58;100.00
55289;BME280;41154;45.394;5.734;2023-01-15T08:10:09;96609.50;;;5.56;100.00
55289;BME280;41154;45.394;5.734;2023-01-15T08:12:35;96610.84;;;5.89;100.00
55289;BME280;41154;45.394;5.734;2023-01-15T08:15:20;96605.75;;;5.75;100.00
55289;BME280;41154;45.394;5.734;2023-01-15T08:17:47;96610.13;;;5.70;100.00
55289;BME280;41154;45.394;5.734;2023-01-15T08:20:14;96611.19;;;5.81;100.00
55289;BME280;41154;45.394;5.734;2023-01-15T08:22:41;96620.06;;;5.74;100.00
55289;BME280;41154;45.394;5.734;2023-01-15T08:25:08;96614.41;;;5.71;100.00
55289;BME280;41154;45.394;5.734;2023-01-15T08:27:35;96619.00;;;6.18;100.00
55289;BME280;41154;45.394;5.734;2023-01-15T08:30:03;96608.00;;;6.26;100.00
55289;BME280;41154;45.394;5.734;2023-01-15T08:32:28;96606.50;;;6.06;100.00
55289;BME280;41154;45.394;5.734;2023-01-15T08:34:54;96588.44;;;5.97;100.00
55289;BME280;41154;45.394;5.734;2023-01-15T08:37:20;96579.88;;;6.06;100.00
55289;BME280;41154;45.394;5.734;2023-01-15T08:39:45;96565.75;;;6.18;100.00
55289;BME280;41154;45.394;5.734;2023-01-15T08:42:11;96568.28;;;6.24;100.00
55289;BME280;41154;45.394;5.734;2023-01-15T08:44:37;96579.41;;;5.98;100.00
55289;BME280;41154;45.394;5.734;2023-01-15T08:47:02;96591.69;;;5.99;100.00
55289;BME280;41154;45.394;5.734;2023-01-15T08:49:28;96599.31;;;6.30;100.00
55289;BME280;41154;45.394;5.734;2023-01-15T08:51:54;96614.41;;;6.25;100.00
55289;BME280;41154;45.394;5.734;2023-01-15T08:54:21;96620.06;;;6.28;100.00
55289;BME280;41154;45.394;5.734;2023-01-15T08:56:49;96642.53;;;6.21;100.00
55289;BME280;41154;45.394;5.734;2023-01-15T08:59:14;96646.44;;;6.42;100.00
55289;BME280;41154;45.394;5.734;2023-01-15T09:01:41;96663.72;;;6.63;100.00
55289;BME280;41154;45.394;5.734;2023-01-15T09:04:08;96667.38;;;6.86;100.00
55289;BME280;41154;45.394;5.734;2023-01-15T09:06:34;96680.63;;;6.80;100.00
55289;BME280;41154;45.394;5.734;2023-01-15T09:08:59;96680.56;;;7.04;100.00
55289;BME280;41154;45.394;5.734;2023-01-15T09:11:25;96687.44;;;6.88;100.00
55289;BME280;41154;45.394;5.734;2023-01-15T09:13:51;96723.97;;;6.88;100.00
55289;BME280;41154;45.394;5.734;2023-01-15T09:16:18;96734.28;;;6.84;100.00
55289;BME280;41154;45.394;5.734;2023-01-15T09:18:44;96754.91;;;6.53;100.00
55289;BME280;41154;45.394;5.734;2023-01-15T09:21:10;96781.09;;;6.56;100.00
55289;BME280;41154;45.394;5.734;2023-01-15T09:23:35;96803.00;;;6.70;100.00
55289;BME280;41154;45.394;5.734;2023-01-15T09:26:04;96829.53;;;6.65;100.00
55289;BME280;41154;45.394;5.734;2023-01-15T09:28:31;96861.78;;;6.75;100.00
55289;BME280;41154;45.394;5.734;2023-01-15T09:30:58;96856.72;;;7.09;100.00
55289;BME280;41154;45.394;5.734;2023-01-15T09:33:24;96881.53;;;7.10;100.00
55289;BME280;41154;45.394;5.734;2023-01-15T09:35:50;96907.25;;;6.92;100.00
55289;BME280;41154;45.394;5.734;2023-01-15T09:38:18;96914.88;;;6.89;100.00
55289;BME280;41154;45.394;5.734;2023-01-15T09:40:55;96926.25;;;6.96;100.00
55289;BME280;41154;45.394;5.734;2023-01-15T09:46:35;96949.09;;;6.92;100.00
55289;BME280;41154;45.394;5.734;2023-01-15T09:54:42;96981.22;;;6.97;100.00
55289;BME280;41154;45.394;5.734;2023-01-15T09:57:12;96999.06;;;6.96;100.00
55289;BME280;41154;45.394;5.734;2023-01-15T09:59:41;97007.16;;;6.90;100.00
55289;BME280;41154;45.394;5.734;2023-01-15T10:05:16;97018.25;;;6.75;100.00
55289;BME280;41154;45.394;5.734;2023-01-15T10:08:05;97036.16;;;6.68;100.00
55289;BME280;41154;45.394;5.734;2023-01-15T10:15:49;97045.41;;;6.46;100.00
55289;BME280;41154;45.394;5.734;2023-01-15T10:18:20;97035.00;;;6.45;100.00
55289;BME280;41154;45.394;5.734;2023-01-15T10:21:09;97040.97;;;6.59;100.00
55289;BME280;41154;45.394;5.734;2023-01-15T10:34:34;96985.81;;;5.85;100.00
55289;BME280;41154;45.394;5.734;2023-01-15T10:37:12;96984.84;;;6.05;100.00
55289;BME280;41154;45.394;5.734;2023-01-15T10:45:27;96983.06;;;5.92;100.00
55289;BME280;41154;45.394;5.734;2023-01-15T10:48:04;96998.59;;;5.95;100.00
55289;BME280;41154;45.394;5.734;2023-01-15T10:50:31;96994.78;;;5.91;100.00
55289;BME280;41154;45.394;5.734;2023-01-15T10:53:13;96991.63;;;6.01;100.00
55289;BME280;41154;45.394;5.734;2023-01-15T10:55:45;96983.50;;;6.14;100.00
55289;BME280;41154;45.394;5.734;2023-01-15T10:58:28;96976.41;;;6.08;100.00
55289;BME280;41154;45.394;5.734;2023-01-15T11:01:04;96982.00;;;6.00;100.00
55289;BME280;41154;45.394;5.734;2023-01-15T11:03:39;96985.97;;;5.90;100.00
55289;BME280;41154;45.394;5.734;2023-01-15T11:06:07;96971.97;;;5.95;100.00
55289;BME280;41154;45.394;5.734;2023-01-15T11:08:36;96965.22;;;5.99;100.00
55289;BME280;41154;45.394;5.734;2023-01-15T11:11:18;96956.56;;;6.04;100.00
55289;BME280;41154;45.394;5.734;2023-01-15T11:13:52;96965.97;;;6.06;100.00
55289;BME280;41154;45.394;5.734;2023-01-15T11:16:37;96969.53;;;6.00;100.00
55289;BME280;41154;45.394;5.734;2023-01-15T11:19:27;96971.13;;;6.01;100.00
55289;BME280;41154;45.394;5.734;2023-01-15T11:24:36;96960.63;;;5.88;100.00
55289;BME280;41154;45.394;5.734;2023-01-15T11:27:04;96964.59;;;5.79;100.00
55289;BME280;41154;45.394;5.734;2023-01-15T11:29:34;96976.63;;;5.81;100.00
55289;BME280;41154;45.394;5.734;2023-01-15T11:32:01;96977.97;;;5.97;100.00
55289;BME280;41154;45.394;5.734;2023-01-15T11:34:27;96977.72;;;5.99;100.00
55289;BME280;41154;45.394;5.734;2023-01-15T11:37:04;96982.41;;;6.22;100.00
55289;BME280;41154;45.394;5.734;2023-01-15T11:39:30;96987.84;;;6.45;100.00
55289;BME280;41154;45.394;5.734;2023-01-15T11:42:11;96989.47;;;6.46;100.00
55289;BME280;41154;45.394;5.734;2023-01-15T11:44:58;96982.75;;;6.07;100.00
55289;BME280;41154;45.394;5.734;2023-01-15T11:47:53;96988.97;;;6.19;100.00
55289;BME280;41154;45.394;5.734;2023-01-15T11:50:54;96993.50;;;6.19;100.00
55289;BME280;41154;45.394;5.734;2023-01-15T11:53:28;96996.72;;;6.02;100.00
55289;BME280;41154;45.394;5.734;2023-01-15T11:56:00;96992.88;;;5.98;100.00
55289;BME280;41154;45.394;5.734;2023-01-15T11:58:30;96995.63;;;5.66;100.00
55289;BME280;41154;45.394;5.734;2023-01-15T12:00:58;96992.09;;;5.47;100.00
55289;BME280;41154;45.394;5.734;2023-01-15T12:03:28;97000.41;;;5.32;100.00
55289;BME280;41154;45.394;5.734;2023-01-15T12:06:01;97017.16;;;5.33;100.00
55289;BME280;41154;45.394;5.734;2023-01-15T12:08:38;97007.69;;;5.12;100.00
55289;BME280;41154;45.394;5.734;2023-01-15T12:25:22;97053.22;;;4.45;100.00
55289;BME280;41154;45.394;5.734;2023-01-15T12:27:55;97050.03;;;4.09;100.00
55289;BME280;41154;45.394;5.734;2023-01-15T12:30:38;97043.31;;;4.07;100.00
55289;BME280;41154;45.394;5.734;2023-01-15T12:34:04;97042.06;;;4.09;100.00
55289;BME280;41154;45.394;5.734;2023-01-15T12:36:05;97044.91;;;4.08;100.00
55289;BME280;41154;45.394;5.734;2023-01-15T12:38:41;97048.84;;;3.85;100.00
55289;BME280;41154;45.394;5.734;2023-01-15T12:41:13;97056.81;;;3.85;100.00
55289;BME280;41154;45.394;5.734;2023-01-15T12:43:45;97059.88;;;3.55;100.00
55289;BME280;41154;45.394;5.734;2023-01-15T12:46:35;97069.06;;;3.53;100.00
55289;BME280;41154;45.394;5.734;2023-01-15T12:49:18;97061.09;;;3.73;100.00
55289;BME280;41154;45.394;5.734;2023-01-15T12:52:19;97057.00;;;3.50;100.00
55289;BME280;41154;45.394;5.734;2023-01-15T12:54:57;97052.72;;;3.56;100.00
55289;BME280;41154;45.394;5.734;2023-01-15T12:57:41;97043.34;;;3.60;100.00
55289;BME280;41154;45.394;5.734;2023-01-15T13:00:22;97050.09;;;3.49;100.00
55289;BME280;41154;45.394;5.734;2023-01-15T13:06:13;97040.28;;;3.70;100.00
55289;BME280;41154;45.394;5.734;2023-01-15T13:08:46;97055.00;;;3.52;100.00
55289;BME280;41154;45.394;5.734;2023-01-15T13:11:17;97046.81;;;3.54;100.00
55289;BME280;41154;45.394;5.734;2023-01-15T13:13:43;97047.66;;;3.68;100.00
55289;BME280;41154;45.394;5.734;2023-01-15T13:16:52;97050.50;;;3.73;100.00
55289;BME280;41154;45.394;5.734;2023-01-15T13:21:59;97031.91;;;3.39;100.00
55289;BME280;41154;45.394;5.734;2023-01-15T13:33:58;97008.06;;;3.46;100.00
55289;BME280;41154;45.394;5.734;2023-01-15T13:36:25;97006.84;;;3.55;100.00
55289;BME280;41154;45.394;5.734;2023-01-15T13:38:58;96999.06;;;3.60;100.00
55289;BME280;41154;45.394;5.734;2023-01-15T13:41:28;96994.34;;;3.69;100.00
55289;BME280;41154;45.394;5.734;2023-01-15T13:44:19;96997.44;;;3.73;100.00
55289;BME280;41154;45.394;5.734;2023-01-15T13:46:48;96996.59;;;3.86;100.00
55289;BME280;41154;45.394;5.734;2023-01-15T13:49:32;96994.75;;;3.86;100.00
55289;BME280;41154;45.394;5.734;2023-01-15T13:52:00;97000.09;;;3.59;100.00
55289;BME280;41154;45.394;5.734;2023-01-15T13:54:32;96987.84;;;3.72;100.00
55289;BME280;41154;45.394;5.734;2023-01-15T14:00:07;96979.88;;;3.72;100.00
55289;BME280;41154;45.394;5.734;2023-01-15T14:02:52;96972.16;;;3.57;100.00
55289;BME280;41154;45.394;5.734;2023-01-15T14:07:51;96976.63;;;3.70;100.00
55289;BME280;41154;45.394;5.734;2023-01-15T14:15:32;96960.47;;;3.78;100.00
55289;BME280;41154;45.394;5.734;2023-01-15T14:18:13;96957.00;;;3.71;100.00
55289;BME280;41154;45.394;5.734;2023-01-15T14:21:09;96957.19;;;3.89;100.00
55289;BME280;41154;45.394;5.734;2023-01-15T14:27:08;96962.94;;;3.73;100.00
55289;BME280;41154;45.394;5.734;2023-01-15T14:35:01;96956.03;;;4.24;100.00
55289;BME280;41154;45.394;5.734;2023-01-15T14:40:27;96954.97;;;4.31;100.00
55289;BME280;41154;45.394;5.734;2023-01-15T14:42:56;96962.41;;;4.23;100.00
55289;BME280;41154;45.394;5.734;2023-01-15T14:45:39;96963.78;;;4.25;100.00
55289;BME280;41154;45.394;5.734;2023-01-15T14:51:21;96966.84;;;3.64;100.00
55289;BME280;41154;45.394;5.734;2023-01-15T14:56:33;96969.41;;;4.04;100.00
55289;BME280;41154;45.394;5.734;2023-01-15T15:02:03;96980.22;;;3.95;100.00
55289;BME280;41154;45.394;5.734;2023-01-15T15:04:38;96988.66;;;3.79;100.00
55289;BME280;41154;45.394;5.734;2023-01-15T15:07:15;96996.59;;;3.86;100.00
55289;BME280;41154;45.394;5.734;2023-01-15T15:09:53;97002.28;;;4.03;100.00
55289;BME280;41154;45.394;5.734;2023-01-15T15:15:04;96999.38;;;4.11;100.00
55289;BME280;41154;45.394;5.734;2023-01-15T15:18:07;96996.78;;;3.84;100.00
55289;BME280;41154;45.394;5.734;2023-01-15T15:26:04;96988.44;;;3.81;100.00
55289;BME280;41154;45.394;5.734;2023-01-15T15:28:30;96985.16;;;3.85;100.00